createdAt,value
2023-03-15T00:09:50.124Z,58.19
2023-03-15T00:19:54.393Z,58.18
2023-03-15T00:29:57.381Z,58.49
2023-03-15T00:40:01.943Z,58.86
2023-03-15T00:50:08.279Z,59.19
2023-03-15T01:00:15.651Z,59.51
2023-03-15T01:10:20.398Z,59.47
2023-03-15T01:20:25.593Z,59.87
2023-03-15T01:30:29.224Z,59.91
2023-03-15T01:40:33.642Z,60.49
2023-03-15T01:50:37.288Z,60.46
2023-03-15T02:00:41.890Z,60.60
2023-03-15T02:10:50.174Z,61.14
2023-03-15T02:21:05.554Z,61.09
2023-03-15T02:31:12.799Z,61.23
2023-03-15T02:41:18.506Z,61.27
2023-03-15T02:51:27.632Z,61.39
2023-03-15T03:01:32.396Z,61.40
2023-03-15T03:11:37.982Z,61.71
2023-03-15T03:21:45.245Z,61.40
2023-03-15T03:31:56.419Z,61.72
2023-03-15T03:41:59.999Z,61.57
2023-03-15T04:02:35.639Z,60.38
2023-03-15T04:12:38.982Z,60.46
2023-03-15T04:22:49.809Z,59.62
2023-03-15T04:32:59.612Z,59.30
2023-03-15T04:43:06.563Z,58.58
2023-03-15T04:53:11.556Z,57.47
2023-03-15T05:03:19.845Z,54.69
2023-03-15T05:13:23.218Z,55.64
2023-03-15T05:23:28.168Z,57.58
2023-03-15T05:33:32.227Z,58.45
2023-03-15T05:43:37.133Z,56.68
2023-03-15T05:53:41.122Z,55.10
2023-03-15T06:03:47.801Z,55.12
2023-03-15T06:13:51.721Z,55.19
2023-03-15T06:23:57.554Z,54.64
2023-03-15T06:34:00.826Z,54.55
2023-03-15T06:44:06.439Z,53.58
2023-03-15T06:54:10.925Z,53.53
2023-03-15T07:04:16.141Z,53.35
2023-03-15T07:14:19.957Z,53.04
2023-03-15T07:24:25.452Z,52.38
2023-03-15T07:34:28.313Z,51.76
2023-03-15T07:44:33.207Z,50.74
2023-03-15T07:54:36.632Z,49.72
2023-03-15T08:04:42.708Z,49.06
2023-03-15T08:14:46.722Z,49.38
2023-03-15T08:24:53.969Z,51.18
2023-03-15T08:34:56.934Z,51.01
2023-03-15T08:45:02.425Z,49.68
2023-03-15T08:55:06.349Z,49.36
2023-03-15T09:05:12.152Z,49.30
2023-03-15T09:15:15.627Z,49.97
2023-03-15T09:25:20.594Z,49.23
2023-03-15T09:35:23.780Z,49.02
2023-03-15T09:45:42.517Z,48.56
2023-03-15T09:55:49.449Z,48.56
2023-03-15T10:06:01.903Z,46.83
2023-03-15T10:16:19.895Z,46.46
2023-03-15T10:26:28.933Z,47.31
2023-03-15T10:36:36.535Z,44.83
2023-03-15T10:46:45.239Z,44.07
2023-03-15T10:56:54.000Z,42.88
2023-03-15T11:07:03.553Z,43.30
2023-03-15T11:17:15.695Z,41.81
2023-03-15T11:27:24.117Z,40.83
2023-03-15T11:37:33.507Z,40.03
2023-03-15T11:47:44.813Z,41.28
2023-03-15T11:57:49.622Z,41.38
2023-03-15T12:08:18.861Z,40.42
2023-03-15T12:18:38.872Z,41.00
2023-03-15T12:29:01.879Z,39.45
2023-03-15T12:39:22.844Z,38.23
2023-03-15T12:49:34.193Z,39.86
2023-03-15T12:59:55.398Z,38.38
2023-03-15T13:10:20.862Z,41.36
2023-03-15T13:20:38.827Z,40.86
2023-03-15T13:30:48.180Z,40.27
2023-03-15T13:40:51.711Z,40.81
2023-03-15T13:50:57.584Z,41.49
2023-03-15T14:01:05.829Z,41.72
2023-03-15T14:11:18.130Z,42.81
2023-03-15T14:21:31.670Z,44.47
2023-03-15T14:31:41.667Z,44.64
2023-03-15T14:41:45.753Z,45.35
2023-03-15T14:51:54.210Z,46.23
2023-03-15T15:02:01.273Z,47.38
2023-03-15T15:12:13.604Z,48.47
2023-03-15T15:22:19.060Z,49.22
2023-03-15T15:32:27.339Z,49.82
2023-03-15T15:42:31.759Z,50.27
2023-03-15T15:52:40.917Z,50.47
2023-03-15T16:02:44.857Z,51.09
2023-03-15T16:12:51.525Z,50.99
2023-03-15T16:23:00.129Z,51.03
2023-03-15T16:33:15.451Z,51.32
2023-03-15T16:43:20.749Z,51.54
2023-03-15T16:53:27.116Z,52.22
2023-03-15T17:03:33.945Z,51.46
2023-03-15T17:13:43.486Z,51.63
2023-03-15T17:23:50.466Z,51.07
2023-03-15T17:33:58.033Z,51.28
2023-03-15T17:44:05.461Z,50.92
2023-03-15T17:54:18.994Z,50.82
2023-03-15T18:04:23.720Z,50.50
2023-03-15T18:14:32.046Z,50.00
2023-03-15T18:24:36.159Z,49.76
2023-03-15T18:34:43.656Z,49.30
2023-03-15T18:44:47.526Z,49.25
2023-03-15T18:54:55.182Z,49.37
2023-03-15T19:05:01.232Z,49.60
2023-03-15T19:15:07.056Z,49.86
2023-03-15T19:25:14.133Z,50.55
2023-03-15T19:35:21.040Z,51.13
2023-03-15T19:45:27.941Z,51.66
2023-03-15T19:55:35.856Z,52.30
2023-03-15T20:05:40.408Z,52.85
2023-03-15T20:15:48.574Z,54.04
2023-03-15T20:26:04.256Z,54.54
2023-03-15T20:36:13.463Z,54.62
2023-03-15T20:46:20.337Z,55.12
2023-03-15T20:56:28.167Z,55.69
2023-03-15T21:06:37.873Z,56.18
2023-03-15T21:16:59.873Z,56.84
2023-03-15T21:27:11.814Z,57.10
2023-03-15T21:37:16.608Z,57.61
2023-03-15T21:47:21.087Z,57.98
2023-03-15T21:57:26.183Z,58.78
2023-03-15T22:07:30.301Z,58.57
2023-03-15T22:17:35.657Z,59.23
2023-03-15T22:27:39.239Z,59.31
2023-03-15T22:37:46.546Z,60.29
2023-03-15T22:47:54.153Z,60.02
2023-03-15T22:58:00.090Z,59.56
2023-03-15T23:08:07.280Z,58.93
2023-03-15T23:18:14.144Z,58.51
2023-03-15T23:28:19.503Z,58.26
2023-03-15T23:38:25.063Z,58.30
2023-03-15T23:48:28.478Z,58.08
2023-03-15T23:58:33.653Z,57.98
